createdAt,value
2023-02-11T00:01:32.007Z,102224.02
2023-02-11T00:04:00.971Z,102222.54
2023-02-11T00:06:31.279Z,102220.98
2023-02-11T00:09:00.412Z,102217.41
2023-02-11T00:11:32.866Z,102206.73
2023-02-11T00:14:03.477Z,102199.93
2023-02-11T00:16:32.934Z,102195.44
2023-02-11T00:19:02.718Z,102185.46
2023-02-11T00:21:32.597Z,102183.55
2023-02-11T00:24:02.489Z,102170.45
2023-02-11T00:26:33.529Z,102170.89
2023-02-11T00:29:02.351Z,102171.38
2023-02-11T00:31:35.068Z,102171.69
2023-02-11T00:34:04.195Z,102174.90
2023-02-11T00:36:33.263Z,102177.44
2023-02-11T00:39:01.978Z,102174.41
2023-02-11T00:41:31.278Z,102174.99
2023-02-11T00:45:21.793Z,102175.55
2023-02-11T00:48:00.918Z,102173.02
2023-02-11T00:50:30.266Z,102174.45
2023-02-11T00:52:59.218Z,102172.98
2023-02-11T00:55:28.024Z,102169.33
2023-02-11T00:57:59.182Z,102173.66
2023-02-11T01:00:28.227Z,102171.52
2023-02-11T01:02:57.647Z,102170.45
2023-02-11T01:05:26.698Z,102162.30
2023-02-11T01:07:56.073Z,102160.58
2023-02-11T01:10:30.613Z,102154.77
2023-02-11T01:13:00.223Z,102151.55
2023-02-11T01:15:29.348Z,102153.61
2023-02-11T01:17:58.745Z,102153.70
2023-02-11T01:20:28.338Z,102143.77
2023-02-11T01:22:58.810Z,102143.80
2023-02-11T01:25:27.391Z,102144.44
2023-02-11T01:27:56.255Z,102141.50
2023-02-11T01:30:25.174Z,102140.73
2023-02-11T01:32:53.871Z,102139.30
2023-02-11T01:35:22.895Z,102138.77
2023-02-11T01:37:52.367Z,102140.22
2023-02-11T01:40:21.259Z,102144.91
2023-02-11T01:42:51.138Z,102142.25
2023-02-11T01:45:46.486Z,102144.16
2023-02-11T01:48:33.525Z,102149.08
2023-02-11T01:51:14.867Z,102157.09
2023-02-11T01:54:02.934Z,102163.84
2023-02-11T01:56:52.360Z,102169.79
2023-02-11T01:59:25.266Z,102168.83
2023-02-11T02:01:59.675Z,102169.97
2023-02-11T02:04:31.967Z,102175.03
2023-02-11T02:07:04.546Z,102170.91
2023-02-11T02:09:37.601Z,102167.80
2023-02-11T02:12:07.893Z,102168.23
2023-02-11T02:15:17.239Z,102166.42
2023-02-11T02:18:31.308Z,102163.72
2023-02-11T02:21:19.813Z,102165.16
2023-02-11T02:24:12.539Z,102163.40
2023-02-11T02:27:02.139Z,102165.59
2023-02-11T02:29:49.770Z,102163.66
2023-02-11T02:32:27.815Z,102168.78
2023-02-11T02:35:10.815Z,102167.00
2023-02-11T02:37:58.365Z,102169.05
2023-02-11T02:40:33.867Z,102164.43
2023-02-11T02:43:02.541Z,102165.30
2023-02-11T02:45:31.215Z,102164.66
2023-02-11T02:48:00.387Z,102163.57
2023-02-11T02:50:35.672Z,102158.02
2023-02-11T02:53:17.040Z,102155.88
2023-02-11T02:56:06.938Z,102147.33
2023-02-11T02:58:51.289Z,102148.13
2023-02-11T03:01:43.970Z,102148.80
2023-02-11T03:04:38.860Z,102156.11
2023-02-11T03:07:21.678Z,102153.81
2023-02-11T03:10:03.903Z,102156.61
2023-02-11T03:12:33.157Z,102155.57
2023-02-11T03:15:04.969Z,102154.91
2023-02-11T03:17:34.441Z,102153.17
2023-02-11T03:20:04.777Z,102152.77
2023-02-11T03:22:35.794Z,102157.55
2023-02-11T03:25:04.919Z,102159.78
2023-02-11T03:27:43.417Z,102155.11
2023-02-11T03:30:44.410Z,102148.52
2023-02-11T03:33:18.670Z,102146.56
2023-02-11T03:35:56.274Z,102141.84
2023-02-11T03:38:32.335Z,102138.57
2023-02-11T03:41:04.732Z,102140.48
2023-02-11T03:43:36.590Z,102138.96
2023-02-11T03:46:05.927Z,102138.14
2023-02-11T03:48:46.654Z,102131.02
2023-02-11T03:51:15.654Z,102128.19
2023-02-11T03:53:46.967Z,102124.77
2023-02-11T03:56:18.825Z,102124.27
2023-02-11T03:58:48.748Z,102123.70
2023-02-11T04:01:19.836Z,102123.17
2023-02-11T04:03:48.606Z,102120.35
2023-02-11T04:06:17.282Z,102114.95
2023-02-11T04:08:47.393Z,102115.91
2023-02-11T04:11:16.852Z,102112.52
2023-02-11T04:13:47.046Z,102113.10
2023-02-11T04:16:16.017Z,102114.83
2023-02-11T04:18:48.922Z,102121.45
2023-02-11T04:21:21.073Z,102123.27
2023-02-11T04:23:55.503Z,102127.52
2023-02-11T04:26:24.397Z,102125.25
2023-02-11T04:28:53.136Z,102127.45
2023-02-11T04:31:22.149Z,102127.70
2023-02-11T04:33:51.943Z,102126.94
2023-02-11T04:36:24.886Z,102122.23
2023-02-11T04:38:53.896Z,102122.25
2023-02-11T04:41:23.246Z,102123.52
2023-02-11T04:44:00.126Z,102121.11
2023-02-11T04:46:34.621Z,102126.10
2023-02-11T04:49:03.964Z,102119.15
2023-02-11T04:51:33.997Z,102117.17
2023-02-11T04:54:05.927Z,102121.23
2023-02-11T04:56:38.644Z,102117.63
2023-02-11T04:59:07.517Z,102115.79
2023-02-11T05:01:36.721Z,102113.61
2023-02-11T05:04:11.464Z,102116.49
2023-02-11T05:06:40.928Z,102116.98
2023-02-11T05:09:13.387Z,102110.89
2023-02-11T05:11:42.226Z,102105.31
2023-02-11T05:14:11.200Z,102101.11
2023-02-11T05:16:40.157Z,102103.80
2023-02-11T05:19:09.565Z,102108.17
2023-02-11T05:21:40.105Z,102110.71
2023-02-11T05:24:11.402Z,102109.81
2023-02-11T05:26:40.731Z,102109.95
2023-02-11T05:29:11.176Z,102104.30
2023-02-11T05:31:43.239Z,102104.45
2023-02-11T05:34:12.140Z,102103.50
2023-02-11T05:36:40.844Z,102103.18
2023-02-11T05:39:09.609Z,102103.61
2023-02-11T05:41:38.501Z,102104.30
2023-02-11T05:44:07.271Z,102103.73
2023-02-11T05:46:36.306Z,102107.49
2023-02-11T05:49:05.402Z,102101.34
2023-02-11T05:51:34.252Z,102105.38
2023-02-11T05:54:03.934Z,102108.58
2023-02-11T05:56:32.976Z,102107.63
2023-02-11T05:59:01.863Z,102105.08
2023-02-11T06:01:30.895Z,102106.16
2023-02-11T06:03:59.897Z,102098.92
2023-02-11T06:06:28.851Z,102095.34
2023-02-11T06:09:00.392Z,102090.84
2023-02-11T06:11:29.095Z,102087.62
2023-02-11T06:14:00.015Z,102090.36
2023-02-11T06:16:28.813Z,102090.27
2023-02-11T06:18:58.212Z,102092.45
2023-02-11T06:21:42.468Z,102086.31
2023-02-11T06:24:12.909Z,102084.52
2023-02-11T06:26:42.628Z,102080.74
2023-02-11T06:29:13.174Z,102076.62
2023-02-11T06:31:41.969Z,102076.77
2023-02-11T06:34:10.838Z,102078.66
2023-02-11T06:36:44.422Z,102073.19
2023-02-11T06:39:13.494Z,102068.92
2023-02-11T06:41:42.226Z,102070.77
2023-02-11T06:44:11.090Z,102070.29
2023-02-11T06:46:41.401Z,102068.50
2023-02-11T06:49:11.142Z,102065.52
2023-02-11T06:51:40.021Z,102065.67
2023-02-11T06:54:11.820Z,102065.36
2023-02-11T06:56:41.355Z,102061.27
2023-02-11T06:59:24.248Z,102057.96
2023-02-11T07:02:11.989Z,102058.78
2023-02-11T07:04:42.091Z,102059.11
2023-02-11T07:07:10.671Z,102061.38
2023-02-11T07:09:41.378Z,102063.73
2023-02-11T07:12:13.653Z,102059.33
2023-02-11T07:14:42.969Z,102056.50
2023-02-11T07:17:11.818Z,102047.40
2023-02-11T07:19:40.681Z,102043.13
2023-02-11T07:22:09.567Z,102041.70
2023-02-11T07:24:38.205Z,102040.49
2023-02-11T07:27:07.792Z,102040.40
2023-02-11T07:29:37.878Z,102040.95
2023-02-11T07:32:06.977Z,102039.08
2023-02-11T07:34:35.881Z,102037.27
2023-02-11T07:37:04.905Z,102034.30
2023-02-11T07:39:33.737Z,102037.21
2023-02-11T07:42:02.428Z,102037.61
2023-02-11T07:44:33.355Z,102039.84
2023-02-11T07:47:05.452Z,102036.70
2023-02-11T07:49:35.493Z,102030.52
2023-02-11T07:52:04.264Z,102039.75
2023-02-11T07:54:33.088Z,102036.39
2023-02-11T07:57:01.818Z,102033.03
2023-02-11T07:59:30.729Z,102030.34
2023-02-11T08:01:59.658Z,102026.62
2023-02-11T08:04:28.826Z,102030.23
2023-02-11T08:06:59.395Z,102025.59
2023-02-11T08:09:28.532Z,102022.20
2023-02-11T08:11:57.415Z,102023.75
2023-02-11T08:14:27.531Z,102019.58
2023-02-11T08:16:58.573Z,102020.83
2023-02-11T08:19:27.780Z,102025.08
2023-02-11T08:21:57.280Z,102019.62
2023-02-11T08:24:26.250Z,102013.40
2023-02-11T08:26:57.562Z,102014.30
2023-02-11T08:29:26.617Z,102010.53
2023-02-11T08:31:55.630Z,102011.98
2023-02-11T08:34:24.862Z,102014.02
2023-02-11T08:36:54.299Z,102014.79
2023-02-11T08:39:23.232Z,102010.75
2023-02-11T08:41:54.884Z,102005.56
2023-02-11T08:44:24.209Z,102006.37
2023-02-11T08:46:53.646Z,102002.50
2023-02-11T08:49:22.681Z,101999.98
2023-02-11T08:51:51.771Z,102001.70
2023-02-11T08:54:21.467Z,102002.09
2023-02-11T08:56:51.476Z,102003.36
2023-02-11T08:59:22.197Z,101996.33
2023-02-11T09:01:51.564Z,101994.84
2023-02-11T09:04:20.448Z,101994.05
2023-02-11T09:06:51.540Z,101989.53
2023-02-11T09:09:21.299Z,101980.15
2023-02-11T09:11:50.176Z,101974.75
2023-02-11T09:14:20.989Z,101961.65
2023-02-11T09:16:50.300Z,101957.98
2023-02-11T09:19:21.102Z,101954.86
2023-02-11T09:21:49.901Z,101946.20
2023-02-11T09:24:18.841Z,101947.02
2023-02-11T09:26:47.768Z,101942.49
2023-02-11T09:29:16.498Z,101935.83
2023-02-11T09:31:46.009Z,101936.95
2023-02-11T09:34:16.171Z,101934.85
2023-02-11T09:36:45.831Z,101935.63
2023-02-11T09:39:17.320Z,101932.05
2023-02-11T09:42:17.343Z,101929.56
2023-02-11T09:44:46.771Z,101926.27
2023-02-11T09:47:26.666Z,101923.17
2023-02-11T09:50:16.913Z,101921.81
2023-02-11T09:52:52.806Z,101918.04
2023-02-11T09:55:30.494Z,101915.40
2023-02-11T09:57:59.700Z,101907.31
2023-02-11T10:00:33.870Z,101906.22
2023-02-11T10:03:39.475Z,101899.79
2023-02-11T10:06:30.963Z,101902.53
2023-02-11T10:09:22.369Z,101893.81
2023-02-11T10:12:28.783Z,101894.64
2023-02-11T10:15:07.482Z,101879.81
2023-02-11T10:18:15.120Z,101873.40
2023-02-11T10:21:03.386Z,101874.85
2023-02-11T10:23:35.570Z,101871.34
2023-02-11T10:26:13.163Z,101866.19
2023-02-11T10:28:44.844Z,101857.77
2023-02-11T10:31:18.317Z,101851.04
2023-02-11T10:33:55.072Z,101849.46
2023-02-11T10:36:36.633Z,101851.94
2023-02-11T10:39:26.853Z,101845.77
2023-02-11T10:41:58.631Z,101845.98
2023-02-11T10:45:01.038Z,101846.11
2023-02-11T10:47:33.270Z,101846.69
2023-02-11T10:50:03.917Z,101841.20
2023-02-11T10:52:33.015Z,101837.48
2023-02-11T10:55:14.997Z,101837.48
2023-02-11T10:57:49.865Z,101839.48
2023-02-11T11:00:41.626Z,101834.95
2023-02-11T11:03:21.558Z,101832.17
2023-02-11T11:06:00.020Z,101831.70
2023-02-11T11:08:40.586Z,101829.63
2023-02-11T11:11:14.403Z,101827.02
2023-02-11T11:13:53.467Z,101827.37
2023-02-11T11:16:27.782Z,101826.41
2023-02-11T11:19:07.697Z,101824.70
2023-02-11T11:21:46.590Z,101817.33
2023-02-11T11:24:34.679Z,101816.33
2023-02-11T11:27:04.720Z,101813.04
2023-02-11T11:29:50.704Z,101806.42
2023-02-11T11:32:24.070Z,101805.34
2023-02-11T11:35:04.377Z,101802.31
2023-02-11T11:37:33.827Z,101800.26
2023-02-11T11:40:09.858Z,101794.18
2023-02-11T11:42:39.491Z,101792.13
2023-02-11T11:45:20.274Z,101793.52
2023-02-11T11:47:53.462Z,101790.81
2023-02-11T11:50:42.359Z,101789.64
2023-02-11T11:53:21.049Z,101793.45
2023-02-11T11:56:15.295Z,101793.91
2023-02-11T11:58:51.314Z,101792.28
2023-02-11T12:01:39.199Z,101794.52
2023-02-11T12:04:17.352Z,101791.86
2023-02-11T12:06:46.101Z,101786.77
2023-02-11T12:09:31.606Z,101786.13
2023-02-11T12:12:17.404Z,101783.60
2023-02-11T12:15:26.678Z,101774.10
2023-02-11T12:18:10.534Z,101773.05
2023-02-11T12:21:17.632Z,101775.36
2023-02-11T12:24:06.931Z,101769.86
2023-02-11T12:26:36.093Z,101768.19
2023-02-11T12:29:32.637Z,101768.10
2023-02-11T12:32:08.427Z,101764.02
2023-02-11T12:35:01.330Z,101765.44
2023-02-11T12:37:49.335Z,101758.85
2023-02-11T12:40:34.524Z,101757.98
2023-02-11T12:43:24.183Z,101752.14
2023-02-11T12:46:17.988Z,101750.98
2023-02-11T12:48:50.190Z,101746.38
2023-02-11T12:51:28.116Z,101742.85
2023-02-11T12:54:24.694Z,101740.54
2023-02-11T12:56:59.533Z,101741.22
2023-02-11T13:00:09.004Z,101740.30
2023-02-11T13:03:05.541Z,101741.31
2023-02-11T13:05:43.900Z,101743.56
2023-02-11T13:08:20.483Z,101736.38
2023-02-11T13:10:53.614Z,101733.97
2023-02-11T13:13:35.317Z,101731.00
2023-02-11T13:16:08.618Z,101733.16
2023-02-11T13:18:37.944Z,101729.20
2023-02-11T13:21:11.630Z,101728.19
2023-02-11T13:23:46.830Z,101722.63
2023-02-11T13:26:42.032Z,101716.45
2023-02-11T13:29:16.859Z,101709.58
2023-02-11T13:32:14.191Z,101707.65
2023-02-11T13:34:44.808Z,101707.16
2023-02-11T13:37:23.678Z,101699.66
2023-02-11T13:40:00.596Z,101693.61
2023-02-11T13:42:29.724Z,101691.64
2023-02-11T13:44:58.763Z,101686.52
2023-02-11T13:47:30.931Z,101683.34
2023-02-11T13:50:00.491Z,101679.89
2023-02-11T13:52:37.720Z,101671.52
2023-02-11T13:55:15.263Z,101670.80
2023-02-11T13:57:44.222Z,101673.11
2023-02-11T14:00:38.937Z,101671.44
2023-02-11T14:03:30.624Z,101663.30
2023-02-11T14:06:27.563Z,101659.89
2023-02-11T14:09:10.324Z,101658.33
2023-02-11T14:11:56.577Z,101646.38
2023-02-11T14:14:33.756Z,101641.39
2023-02-11T14:17:07.374Z,101643.36
2023-02-11T14:19:49.602Z,101641.55
2023-02-11T14:22:28.087Z,101635.41
2023-02-11T14:25:02.555Z,101633.40
2023-02-11T14:27:32.025Z,101627.06
2023-02-11T14:30:13.401Z,101621.05
2023-02-11T14:33:15.863Z,101612.40
2023-02-11T14:35:54.388Z,101610.45
2023-02-11T14:38:48.428Z,101605.85
2023-02-11T14:41:25.203Z,101605.06
2023-02-11T14:43:55.595Z,101602.16
2023-02-11T14:46:24.932Z,101599.60
2023-02-11T14:48:55.424Z,101600.35
2023-02-11T14:51:36.431Z,101600.74
2023-02-11T14:54:17.999Z,101597.69
2023-02-11T14:56:47.326Z,101607.65
2023-02-11T14:59:19.943Z,101609.67
2023-02-11T15:01:54.958Z,101611.38
2023-02-11T15:04:32.018Z,101611.52
2023-02-11T15:07:07.398Z,101612.80
2023-02-11T15:09:43.357Z,101610.23
2023-02-11T15:12:20.466Z,101609.90
2023-02-11T15:14:55.550Z,101606.34
2023-02-11T15:17:28.229Z,101604.08
2023-02-11T15:20:00.416Z,101602.67
2023-02-11T15:22:36.859Z,101600.09
2023-02-11T15:25:17.597Z,101601.91
2023-02-11T15:27:54.657Z,101599.33
2023-02-11T15:30:23.977Z,101596.59
2023-02-11T15:33:00.533Z,101586.29
2023-02-11T15:35:35.319Z,101594.82
2023-02-11T15:38:04.331Z,101590.97
2023-02-11T15:40:37.580Z,101589.38
2023-02-11T15:43:08.635Z,101594.46
2023-02-11T15:45:58.287Z,101592.69
2023-02-11T15:48:38.572Z,101588.80
2023-02-11T15:51:22.097Z,101585.79
2023-02-11T15:53:57.732Z,101587.88
2023-02-11T15:56:43.826Z,101584.70
2023-02-11T15:59:20.247Z,101579.00
2023-02-11T16:01:49.401Z,101573.93
2023-02-11T16:04:20.750Z,101573.27
2023-02-11T16:06:51.105Z,101577.73
2023-02-11T16:09:30.992Z,101570.46
2023-02-11T16:12:07.691Z,101573.27
2023-02-11T16:14:42.480Z,101569.96
2023-02-11T16:17:13.646Z,101570.38
2023-02-11T16:19:49.890Z,101563.76
2023-02-11T16:22:21.236Z,101561.96
2023-02-11T16:24:50.302Z,101556.63
2023-02-11T16:27:24.104Z,101558.41
2023-02-11T16:29:52.901Z,101559.64
2023-02-11T16:32:23.854Z,101555.75
2023-02-11T16:34:55.584Z,101552.00
2023-02-11T16:37:25.222Z,101544.65
2023-02-11T16:39:56.262Z,101537.45
2023-02-11T16:42:25.468Z,101532.38
2023-02-11T16:44:54.497Z,101528.75
2023-02-11T16:47:27.757Z,101531.95
2023-02-11T16:49:56.566Z,101524.27
2023-02-11T16:52:25.395Z,101521.23
2023-02-11T16:54:55.906Z,101518.85
2023-02-11T16:57:26.950Z,101517.95
2023-02-11T16:59:56.957Z,101512.04
2023-02-11T17:02:33.694Z,101508.95
2023-02-11T17:05:06.622Z,101502.34
2023-02-11T17:07:36.892Z,101490.76
2023-02-11T17:10:20.516Z,101485.67
2023-02-11T17:12:51.460Z,101483.22
2023-02-11T17:15:20.599Z,101474.66
2023-02-11T17:17:49.195Z,101475.63
2023-02-11T17:20:18.563Z,101466.09
2023-02-11T17:22:47.482Z,101459.59
2023-02-11T17:25:16.582Z,101454.42
2023-02-11T17:27:45.762Z,101452.42
2023-02-11T17:30:15.556Z,101453.75
2023-02-11T17:32:44.807Z,101456.05
2023-02-11T17:35:13.468Z,101456.14
2023-02-11T17:37:42.227Z,101454.13
2023-02-11T17:40:12.332Z,101450.58
2023-02-11T17:42:41.394Z,101452.94
2023-02-11T17:45:10.610Z,101452.41
2023-02-11T17:47:39.467Z,101450.39
2023-02-11T17:50:08.954Z,101452.08
2023-02-11T17:52:43.284Z,101450.46
2023-02-11T17:55:12.219Z,101449.15
2023-02-11T17:57:41.423Z,101446.30
2023-02-11T18:00:11.283Z,101435.05
2023-02-11T18:02:44.795Z,101431.30
2023-02-11T18:05:14.971Z,101430.77
2023-02-11T18:07:44.241Z,101430.55
2023-02-11T18:10:12.926Z,101427.71
2023-02-11T18:12:41.703Z,101418.91
2023-02-11T18:15:10.941Z,101421.14
2023-02-11T18:17:40.123Z,101417.52
2023-02-11T18:20:09.513Z,101409.85
2023-02-11T18:22:41.286Z,101403.23
2023-02-11T18:25:12.228Z,101399.36
2023-02-11T18:27:41.666Z,101394.59
2023-02-11T18:30:20.816Z,101392.84
2023-02-11T18:32:56.257Z,101387.41
2023-02-11T18:35:25.650Z,101377.07
2023-02-11T18:37:56.916Z,101373.83
2023-02-11T18:40:26.155Z,101371.24
2023-02-11T18:42:57.512Z,101357.06
2023-02-11T18:45:29.440Z,101349.45
2023-02-11T18:48:02.051Z,101347.23
2023-02-11T18:50:31.075Z,101342.69
2023-02-11T18:52:59.827Z,101340.36
2023-02-11T18:55:28.672Z,101335.74
2023-02-11T18:57:57.468Z,101334.52
2023-02-11T19:00:26.800Z,101329.02
2023-02-11T19:02:55.646Z,101331.60
2023-02-11T19:05:28.955Z,101322.99
2023-02-11T19:07:57.797Z,101322.53
2023-02-11T19:10:27.070Z,101313.35
2023-02-11T19:12:59.426Z,101312.52
2023-02-11T19:15:33.089Z,101311.02
2023-02-11T19:18:02.168Z,101310.48
2023-02-11T19:20:33.647Z,101302.89
2023-02-11T19:23:02.567Z,101300.19
2023-02-11T19:25:31.461Z,101296.77
2023-02-11T19:28:00.632Z,101291.20
2023-02-11T19:30:29.614Z,101291.42
2023-02-11T19:32:59.278Z,101290.48
2023-02-11T19:35:28.193Z,101283.73
2023-02-11T19:37:57.458Z,101283.40
2023-02-11T19:40:26.638Z,101277.64
2023-02-11T19:42:55.812Z,101279.25
2023-02-11T19:45:26.670Z,101273.66
2023-02-11T19:47:56.981Z,101273.63
2023-02-11T19:50:25.896Z,101271.89
2023-02-11T19:52:55.627Z,101274.70
2023-02-11T19:55:24.564Z,101271.06
2023-02-11T19:57:53.354Z,101261.68
2023-02-11T20:00:23.837Z,101259.77
2023-02-11T20:02:58.413Z,101250.50
2023-02-11T20:05:27.378Z,101249.02
2023-02-11T20:07:57.079Z,101254.29
2023-02-11T20:10:26.525Z,101248.09
2023-02-11T20:12:55.318Z,101244.13
2023-02-11T20:15:24.740Z,101236.52
2023-02-11T20:17:53.707Z,101237.16
2023-02-11T20:20:23.014Z,101233.86
2023-02-11T20:22:55.026Z,101229.36
2023-02-11T20:25:24.908Z,101225.19
2023-02-11T20:27:54.419Z,101232.75
2023-02-11T20:30:24.037Z,101221.94
2023-02-11T20:32:53.918Z,101225.76
2023-02-11T20:35:23.563Z,101215.73
2023-02-11T20:37:53.180Z,101215.13
2023-02-11T20:40:22.046Z,101211.66
2023-02-11T20:42:51.355Z,101208.40
2023-02-11T20:45:20.351Z,101204.92
2023-02-11T20:47:49.210Z,101194.84
2023-02-11T20:50:18.207Z,101185.86
2023-02-11T20:52:48.804Z,101183.86
2023-02-11T20:55:18.188Z,101179.86
2023-02-11T20:57:54.749Z,101180.21
2023-02-11T21:00:23.906Z,101177.76
2023-02-11T21:02:52.983Z,101173.80
2023-02-11T21:05:22.193Z,101175.98
2023-02-11T21:07:52.908Z,101170.34
2023-02-11T21:10:21.651Z,101172.07
2023-02-11T21:12:50.765Z,101174.87
2023-02-11T21:15:19.947Z,101169.67
2023-02-11T21:17:48.706Z,101162.91
2023-02-11T21:20:18.192Z,101161.91
2023-02-11T21:22:47.070Z,101159.75
2023-02-11T21:25:16.394Z,101152.20
2023-02-11T21:27:45.289Z,101154.44
2023-02-11T21:30:14.733Z,101154.49
2023-02-11T21:32:43.799Z,101153.45
2023-02-11T21:35:13.457Z,101149.48
2023-02-11T21:37:42.298Z,101152.96
2023-02-11T21:40:11.741Z,101149.52
2023-02-11T21:42:41.226Z,101143.36
2023-02-11T21:45:10.608Z,101144.72
2023-02-11T21:47:40.594Z,101146.70
2023-02-11T21:50:10.091Z,101132.82
2023-02-11T21:52:40.208Z,101132.16
2023-02-11T21:55:09.703Z,101129.52
2023-02-11T21:57:38.696Z,101136.95
2023-02-11T22:00:09.579Z,101125.29
2023-02-11T22:02:39.319Z,101129.30
2023-02-11T22:05:08.874Z,101122.59
2023-02-11T22:07:37.892Z,101121.20
2023-02-11T22:10:08.334Z,101104.21
2023-02-11T22:12:38.044Z,101106.05
2023-02-11T22:15:07.501Z,101096.52
2023-02-11T22:17:37.475Z,101093.95
2023-02-11T22:20:07.188Z,101090.50
2023-02-11T22:22:36.353Z,101082.27
2023-02-11T22:25:05.437Z,101078.61
2023-02-11T22:27:35.720Z,101082.52
2023-02-11T22:30:05.203Z,101068.71
2023-02-11T22:32:35.217Z,101060.15
2023-02-11T22:35:04.052Z,101057.54
2023-02-11T22:37:33.408Z,101048.42
2023-02-11T22:40:02.721Z,101051.30
2023-02-11T22:42:33.392Z,101050.17
2023-02-11T22:45:03.596Z,101053.80
2023-02-11T22:47:32.830Z,101059.06
2023-02-11T22:50:02.245Z,101048.48
2023-02-11T22:52:31.932Z,101042.08
2023-02-11T22:55:01.629Z,101044.88
2023-02-11T22:57:30.987Z,101037.48
2023-02-11T23:00:00.102Z,101029.86
2023-02-11T23:02:28.862Z,101038.02
2023-02-11T23:05:00.196Z,101033.17
2023-02-11T23:07:30.962Z,101033.58
2023-02-11T23:10:00.271Z,101023.59
2023-02-11T23:12:29.542Z,101023.36
2023-02-11T23:14:58.320Z,101018.02
2023-02-11T23:17:29.399Z,101011.22
2023-02-11T23:19:58.682Z,101002.86
2023-02-11T23:22:28.522Z,101001.91
2023-02-11T23:24:57.453Z,100996.18
2023-02-11T23:27:26.156Z,100987.23
2023-02-11T23:29:57.259Z,100991.64
2023-02-11T23:32:26.550Z,100990.63
2023-02-11T23:34:55.789Z,100989.30
2023-02-11T23:37:26.959Z,100987.13
2023-02-11T23:39:56.486Z,100984.11
2023-02-11T23:42:25.416Z,100979.54
2023-02-11T23:44:56.169Z,100972.25
2023-02-11T23:47:25.138Z,100970.30
2023-02-11T23:49:58.095Z,100962.23
2023-02-11T23:52:28.298Z,100957.55
2023-02-11T23:54:57.123Z,100955.11
2023-02-11T23:57:25.839Z,100949.22
2023-02-11T23:59:54.623Z,100950.10
